KBIH/BIH METAR and TAF weather

Enter ICAO airport designator
Station Type Date Time Source
KBIH METAR 2019/02/23 22:56 UTC NOAA

KBIH 232256Z AUTO 22006KT 10SM CLR 09/M17 A3018 RMK AO2 SLP226 T00891167


Station Type Date Time Source
KBIH Decoded METAR 2019/02/23 22:56 UTC NOAA

BISHOP AIRPORT, CA, United States (KBIH) 37-22N 118-22W 1253M
Feb 23, 2019 - 05:56 PM EST / 2019.02.23 2256 UTC
Wind: from the SW (220 degrees) at 7 MPH (6 KT):0
Visibility: 10 mile(s):0
Sky conditions: clear
Temperature: 48.0 F (8.9 C)
Dew Point: 1.9 F (-16.7 C)
Relative Humidity: 14%
Pressure (altimeter): 30.18 in. Hg (1022 hPa)
ob: KBIH 232256Z AUTO 22006KT 10SM CLR 09/M17 A3018 RMK AO2 SLP226 T00891167
cycle: 23

Station Type Date Time Source
KBIH TAF 2019/02/23 18:24 UTC NOAA

TAF KBIH 231721Z 2318/2418 VRB05KT P6SM SCT250
FM240400 35006KT P6SM BKN250
FM241600 VRB05KT P6SM SCT100 SCT250


Example: see airport list